sensor_id;sensor_type;location;lat;lon;timestamp;P1;durP1;ratioP1;P2;durP2;ratioP2
30533;SDS011;17318;52.390;9.754;2023-04-07T00:02:16;14.75;;;8.02;;
30533;SDS011;17318;52.390;9.754;2023-04-07T00:04:42;14.90;;;8.48;;
30533;SDS011;17318;52.390;9.754;2023-04-07T00:07:07;13.90;;;7.95;;
30533;SDS011;17318;52.390;9.754;2023-04-07T00:09:33;17.27;;;9.02;;
30533;SDS011;17318;52.390;9.754;2023-04-07T00:11:59;19.30;;;9.45;;
30533;SDS011;17318;52.390;9.754;2023-04-07T00:14:27;17.45;;;8.88;;
30533;SDS011;17318;52.390;9.754;2023-04-07T00:16:53;16.73;;;8.52;;
30533;SDS011;17318;52.390;9.754;2023-04-07T00:19:19;18.58;;;9.00;;
30533;SDS011;17318;52.390;9.754;2023-04-07T00:21:44;16.10;;;8.68;;
30533;SDS011;17318;52.390;9.754;2023-04-07T00:24:10;21.77;;;8.50;;
30533;SDS011;17318;52.390;9.754;2023-04-07T00:26:36;14.80;;;7.95;;
30533;SDS011;17318;52.390;9.754;2023-04-07T00:29:01;17.00;;;7.65;;
30533;SDS011;17318;52.390;9.754;2023-04-07T00:31:27;22.67;;;8.35;;
30533;SDS011;17318;52.390;9.754;2023-04-07T00:33:53;19.15;;;8.02;;
30533;SDS011;17318;52.390;9.754;2023-04-07T00:36:19;15.90;;;8.45;;
30533;SDS011;17318;52.390;9.754;2023-04-07T00:38:45;17.88;;;8.52;;
30533;SDS011;17318;52.390;9.754;2023-04-07T00:41:11;19.73;;;8.68;;
30533;SDS011;17318;52.390;9.754;2023-04-07T00:43:36;17.17;;;8.00;;
30533;SDS011;17318;52.390;9.754;2023-04-07T00:46:02;14.48;;;8.85;;
30533;SDS011;17318;52.390;9.754;2023-04-07T00:48:28;17.20;;;7.72;;
30533;SDS011;17318;52.390;9.754;2023-04-07T00:50:54;14.05;;;8.55;;
30533;SDS011;17318;52.390;9.754;2023-04-07T00:53:20;15.27;;;8.00;;
30533;SDS011;17318;52.390;9.754;2023-04-07T00:55:46;16.05;;;8.23;;
30533;SDS011;17318;52.390;9.754;2023-04-07T00:58:12;16.35;;;8.35;;
30533;SDS011;17318;52.390;9.754;2023-04-07T01:03:45;17.83;;;7.47;;
30533;SDS011;17318;52.390;9.754;2023-04-07T01:06:27;15.73;;;8.00;;
30533;SDS011;17318;52.390;9.754;2023-04-07T01:09:03;14.75;;;8.20;;
30533;SDS011;17318;52.390;9.754;2023-04-07T01:11:47;19.08;;;7.88;;
30533;SDS011;17318;52.390;9.754;2023-04-07T01:14:34;17.40;;;8.65;;
30533;SDS011;17318;52.390;9.754;2023-04-07T01:17:06;17.95;;;8.40;;
30533;SDS011;17318;52.390;9.754;2023-04-07T01:19:36;15.93;;;7.90;;
30533;SDS011;17318;52.390;9.754;2023-04-07T01:22:26;13.70;;;7.70;;
30533;SDS011;17318;52.390;9.754;2023-04-07T01:30:23;13.85;;;7.70;;
30533;SDS011;17318;52.390;9.754;2023-04-07T01:32:52;15.85;;;8.35;;
30533;SDS011;17318;52.390;9.754;2023-04-07T01:35:20;19.23;;;8.30;;
30533;SDS011;17318;52.390;9.754;2023-04-07T01:37:47;14.63;;;7.93;;
30533;SDS011;17318;52.390;9.754;2023-04-07T01:40:15;15.27;;;8.23;;
30533;SDS011;17318;52.390;9.754;2023-04-07T01:42:42;16.45;;;8.13;;
30533;SDS011;17318;52.390;9.754;2023-04-07T01:45:09;15.45;;;8.23;;
30533;SDS011;17318;52.390;9.754;2023-04-07T01:47:35;12.90;;;7.95;;
30533;SDS011;17318;52.390;9.754;2023-04-07T01:50:02;12.48;;;8.20;;
30533;SDS011;17318;52.390;9.754;2023-04-07T01:52:29;16.67;;;7.22;;
30533;SDS011;17318;52.390;9.754;2023-04-07T01:54:57;13.63;;;8.30;;
30533;SDS011;17318;52.390;9.754;2023-04-07T01:57:23;17.77;;;8.50;;
30533;SDS011;17318;52.390;9.754;2023-04-07T01:59:48;17.60;;;8.10;;
30533;SDS011;17318;52.390;9.754;2023-04-07T02:02:14;14.68;;;8.38;;
30533;SDS011;17318;52.390;9.754;2023-04-07T02:04:44;13.52;;;8.38;;
30533;SDS011;17318;52.390;9.754;2023-04-07T02:07:40;18.52;;;8.27;;
30533;SDS011;17318;52.390;9.754;2023-04-07T02:10:20;17.15;;;8.60;;
30533;SDS011;17318;52.390;9.754;2023-04-07T02:12:48;16.67;;;7.88;;
30533;SDS011;17318;52.390;9.754;2023-04-07T02:15:14;11.93;;;7.57;;
30533;SDS011;17318;52.390;9.754;2023-04-07T02:17:42;15.75;;;8.43;;
30533;SDS011;17318;52.390;9.754;2023-04-07T02:20:11;21.75;;;8.43;;
30533;SDS011;17318;52.390;9.754;2023-04-07T02:22:38;17.05;;;7.65;;
30533;SDS011;17318;52.390;9.754;2023-04-07T02:27:47;14.07;;;8.50;;
30533;SDS011;17318;52.390;9.754;2023-04-07T02:30:13;13.70;;;8.48;;
30533;SDS011;17318;52.390;9.754;2023-04-07T02:32:39;14.00;;;7.32;;
30533;SDS011;17318;52.390;9.754;2023-04-07T02:35:05;14.10;;;8.57;;
30533;SDS011;17318;52.390;9.754;2023-04-07T02:37:31;15.23;;;7.70;;
30533;SDS011;17318;52.390;9.754;2023-04-07T02:39:56;16.50;;;8.57;;
30533;SDS011;17318;52.390;9.754;2023-04-07T02:42:22;16.83;;;8.77;;
30533;SDS011;17318;52.390;9.754;2023-04-07T02:44:49;19.17;;;9.20;;
30533;SDS011;17318;52.390;9.754;2023-04-07T02:47:14;16.63;;;8.27;;
30533;SDS011;17318;52.390;9.754;2023-04-07T02:49:40;17.70;;;8.95;;
30533;SDS011;17318;52.390;9.754;2023-04-07T02:52:06;19.40;;;9.07;;
30533;SDS011;17318;52.390;9.754;2023-04-07T02:54:32;19.83;;;9.10;;
30533;SDS011;17318;52.390;9.754;2023-04-07T02:56:58;16.65;;;8.27;;
30533;SDS011;17318;52.390;9.754;2023-04-07T02:59:23;14.50;;;8.57;;
30533;SDS011;17318;52.390;9.754;2023-04-07T03:01:49;16.80;;;9.25;;
30533;SDS011;17318;52.390;9.754;2023-04-07T03:04:14;13.13;;;8.32;;
30533;SDS011;17318;52.390;9.754;2023-04-07T03:06:40;15.25;;;9.32;;
30533;SDS011;17318;52.390;9.754;2023-04-07T03:09:06;15.38;;;8.80;;
30533;SDS011;17318;52.390;9.754;2023-04-07T03:11:35;16.40;;;8.48;;
30533;SDS011;17318;52.390;9.754;2023-04-07T03:14:00;14.57;;;7.78;;
30533;SDS011;17318;52.390;9.754;2023-04-07T03:16:26;14.70;;;9.25;;
30533;SDS011;17318;52.390;9.754;2023-04-07T03:18:51;15.35;;;8.90;;
30533;SDS011;17318;52.390;9.754;2023-04-07T03:21:17;19.45;;;9.57;;
30533;SDS011;17318;52.390;9.754;2023-04-07T03:23:43;15.57;;;9.00;;
30533;SDS011;17318;52.390;9.754;2023-04-07T03:26:08;15.30;;;8.68;;
30533;SDS011;17318;52.390;9.754;2023-04-07T03:28:34;16.13;;;8.75;;
30533;SDS011;17318;52.390;9.754;2023-04-07T03:31:00;19.13;;;10.07;;
30533;SDS011;17318;52.390;9.754;2023-04-07T03:33:26;17.63;;;9.65;;
30533;SDS011;17318;52.390;9.754;2023-04-07T03:35:52;15.32;;;9.75;;
30533;SDS011;17318;52.390;9.754;2023-04-07T03:38:17;15.02;;;9.00;;
30533;SDS011;17318;52.390;9.754;2023-04-07T03:40:43;16.65;;;10.07;;
30533;SDS011;17318;52.390;9.754;2023-04-07T03:43:08;18.33;;;9.52;;
30533;SDS011;17318;52.390;9.754;2023-04-07T03:45:38;14.50;;;8.93;;
30533;SDS011;17318;52.390;9.754;2023-04-07T03:48:04;22.70;;;9.80;;
30533;SDS011;17318;52.390;9.754;2023-04-07T03:50:30;16.90;;;9.52;;
30533;SDS011;17318;52.390;9.754;2023-04-07T03:52:55;19.48;;;9.73;;
30533;SDS011;17318;52.390;9.754;2023-04-07T03:55:21;17.50;;;9.95;;
30533;SDS011;17318;52.390;9.754;2023-04-07T03:57:47;17.27;;;9.93;;
30533;SDS011;17318;52.390;9.754;2023-04-07T04:00:12;19.00;;;10.18;;
30533;SDS011;17318;52.390;9.754;2023-04-07T04:02:38;16.75;;;9.07;;
30533;SDS011;17318;52.390;9.754;2023-04-07T04:05:04;20.20;;;10.35;;
30533;SDS011;17318;52.390;9.754;2023-04-07T04:07:30;20.40;;;9.90;;
30533;SDS011;17318;52.390;9.754;2023-04-07T04:09:57;18.53;;;11.13;;
30533;SDS011;17318;52.390;9.754;2023-04-07T04:12:23;16.52;;;10.00;;
30533;SDS011;17318;52.390;9.754;2023-04-07T04:14:49;20.88;;;10.95;;
30533;SDS011;17318;52.390;9.754;2023-04-07T04:17:14;20.95;;;10.50;;
30533;SDS011;17318;52.390;9.754;2023-04-07T04:19:40;22.92;;;11.35;;
30533;SDS011;17318;52.390;9.754;2023-04-07T04:22:05;22.30;;;11.15;;
30533;SDS011;17318;52.390;9.754;2023-04-07T04:24:31;19.35;;;10.45;;
30533;SDS011;17318;52.390;9.754;2023-04-07T04:26:57;19.88;;;11.27;;
30533;SDS011;17318;52.390;9.754;2023-04-07T04:29:23;19.85;;;10.60;;
30533;SDS011;17318;52.390;9.754;2023-04-07T04:31:48;19.73;;;10.88;;
30533;SDS011;17318;52.390;9.754;2023-04-07T04:34:14;23.02;;;11.30;;
30533;SDS011;17318;52.390;9.754;2023-04-07T04:36:39;19.67;;;11.07;;
30533;SDS011;17318;52.390;9.754;2023-04-07T04:39:05;21.77;;;10.98;;
30533;SDS011;17318;52.390;9.754;2023-04-07T04:41:31;24.10;;;10.77;;
30533;SDS011;17318;52.390;9.754;2023-04-07T04:43:56;25.90;;;11.52;;
30533;SDS011;17318;52.390;9.754;2023-04-07T04:46:23;23.70;;;11.60;;
30533;SDS011;17318;52.390;9.754;2023-04-07T04:48:48;22.25;;;11.55;;
30533;SDS011;17318;52.390;9.754;2023-04-07T04:51:15;22.60;;;11.32;;
30533;SDS011;17318;52.390;9.754;2023-04-07T04:53:41;30.98;;;12.15;;
30533;SDS011;17318;52.390;9.754;2023-04-07T04:56:07;19.83;;;10.88;;
30533;SDS011;17318;52.390;9.754;2023-04-07T04:58:33;26.65;;;11.38;;
30533;SDS011;17318;52.390;9.754;2023-04-07T05:00:59;19.98;;;11.27;;
30533;SDS011;17318;52.390;9.754;2023-04-07T05:03:26;18.67;;;10.35;;
30533;SDS011;17318;52.390;9.754;2023-04-07T05:05:52;26.27;;;11.52;;
30533;SDS011;17318;52.390;9.754;2023-04-07T05:08:18;17.85;;;9.57;;
30533;SDS011;17318;52.390;9.754;2023-04-07T05:10:45;18.25;;;10.65;;
30533;SDS011;17318;52.390;9.754;2023-04-07T05:13:10;17.63;;;10.70;;
30533;SDS011;17318;52.390;9.754;2023-04-07T05:15:36;22.20;;;10.98;;
30533;SDS011;17318;52.390;9.754;2023-04-07T05:18:02;18.13;;;9.95;;
30533;SDS011;17318;52.390;9.754;2023-04-07T05:20:28;22.45;;;11.35;;
30533;SDS011;17318;52.390;9.754;2023-04-07T05:22:53;20.08;;;10.55;;
30533;SDS011;17318;52.390;9.754;2023-04-07T05:25:19;18.55;;;10.20;;
30533;SDS011;17318;52.390;9.754;2023-04-07T05:27:44;21.95;;;10.55;;
30533;SDS011;17318;52.390;9.754;2023-04-07T05:30:10;19.65;;;11.02;;
30533;SDS011;17318;52.390;9.754;2023-04-07T05:32:36;19.42;;;10.32;;
30533;SDS011;17318;52.390;9.754;2023-04-07T05:35:02;18.08;;;10.32;;
30533;SDS011;17318;52.390;9.754;2023-04-07T05:37:28;18.58;;;10.23;;
30533;SDS011;17318;52.390;9.754;2023-04-07T05:39:53;17.98;;;10.15;;
30533;SDS011;17318;52.390;9.754;2023-04-07T05:42:19;15.43;;;9.48;;
30533;SDS011;17318;52.390;9.754;2023-04-07T05:44:45;19.48;;;10.63;;
30533;SDS011;17318;52.390;9.754;2023-04-07T05:47:11;16.50;;;10.00;;
30533;SDS011;17318;52.390;9.754;2023-04-07T05:49:37;16.20;;;9.45;;
30533;SDS011;17318;52.390;9.754;2023-04-07T05:52:09;18.45;;;10.43;;
30533;SDS011;17318;52.390;9.754;2023-04-07T05:54:36;15.35;;;9.68;;
30533;SDS011;17318;52.390;9.754;2023-04-07T05:57:01;20.20;;;10.75;;
30533;SDS011;17318;52.390;9.754;2023-04-07T05:59:27;19.52;;;10.60;;
30533;SDS011;17318;52.390;9.754;2023-04-07T06:01:53;14.38;;;9.65;;
30533;SDS011;17318;52.390;9.754;2023-04-07T06:04:19;17.98;;;10.05;;
30533;SDS011;17318;52.390;9.754;2023-04-07T06:06:44;20.63;;;11.10;;
30533;SDS011;17318;52.390;9.754;2023-04-07T06:09:10;16.08;;;10.25;;
30533;SDS011;17318;52.390;9.754;2023-04-07T06:11:36;19.17;;;10.18;;
30533;SDS011;17318;52.390;9.754;2023-04-07T06:14:02;15.88;;;9.88;;
30533;SDS011;17318;52.390;9.754;2023-04-07T06:16:27;16.10;;;9.52;;
30533;SDS011;17318;52.390;9.754;2023-04-07T06:18:53;23.73;;;10.25;;
30533;SDS011;17318;52.390;9.754;2023-04-07T06:21:19;20.63;;;10.63;;
30533;SDS011;17318;52.390;9.754;2023-04-07T06:23:44;17.75;;;9.57;;
30533;SDS011;17318;52.390;9.754;2023-04-07T06:26:10;21.83;;;10.23;;
30533;SDS011;17318;52.390;9.754;2023-04-07T06:28:36;19.73;;;9.70;;
30533;SDS011;17318;52.390;9.754;2023-04-07T06:31:02;19.25;;;9.95;;
30533;SDS011;17318;52.390;9.754;2023-04-07T06:33:28;16.75;;;9.15;;
30533;SDS011;17318;52.390;9.754;2023-04-07T06:35:54;15.15;;;8.85;;
30533;SDS011;17318;52.390;9.754;2023-04-07T06:38:21;16.55;;;9.45;;
30533;SDS011;17318;52.390;9.754;2023-04-07T06:40:46;15.85;;;9.02;;
30533;SDS011;17318;52.390;9.754;2023-04-07T06:43:12;15.45;;;8.77;;
30533;SDS011;17318;52.390;9.754;2023-04-07T06:45:38;19.60;;;9.27;;
30533;SDS011;17318;52.390;9.754;2023-04-07T06:48:05;15.77;;;8.90;;
30533;SDS011;17318;52.390;9.754;2023-04-07T06:50:31;14.60;;;9.07;;
30533;SDS011;17318;52.390;9.754;2023-04-07T06:52:57;15.38;;;8.45;;
30533;SDS011;17318;52.390;9.754;2023-04-07T06:55:22;15.30;;;8.80;;
30533;SDS011;17318;52.390;9.754;2023-04-07T06:57:48;17.10;;;9.23;;
30533;SDS011;17318;52.390;9.754;2023-04-07T07:00:16;19.10;;;9.18;;
30533;SDS011;17318;52.390;9.754;2023-04-07T07:02:42;13.77;;;8.85;;
30533;SDS011;17318;52.390;9.754;2023-04-07T07:05:08;17.95;;;9.60;;
30533;SDS011;17318;52.390;9.754;2023-04-07T07:07:35;19.30;;;10.43;;
30533;SDS011;17318;52.390;9.754;2023-04-07T07:10:01;15.20;;;9.50;;
30533;SDS011;17318;52.390;9.754;2023-04-07T07:12:27;14.50;;;8.90;;
30533;SDS011;17318;52.390;9.754;2023-04-07T07:14:53;15.70;;;9.40;;
30533;SDS011;17318;52.390;9.754;2023-04-07T07:17:19;18.40;;;10.00;;
30533;SDS011;17318;52.390;9.754;2023-04-07T07:19:44;14.77;;;8.73;;
30533;SDS011;17318;52.390;9.754;2023-04-07T07:22:10;13.07;;;8.70;;
30533;SDS011;17318;52.390;9.754;2023-04-07T07:24:35;14.40;;;8.63;;
30533;SDS011;17318;52.390;9.754;2023-04-07T07:27:01;14.98;;;8.70;;
30533;SDS011;17318;52.390;9.754;2023-04-07T07:29:27;12.23;;;8.50;;
30533;SDS011;17318;52.390;9.754;2023-04-07T07:31:53;13.43;;;8.65;;
30533;SDS011;17318;52.390;9.754;2023-04-07T07:34:18;16.33;;;8.75;;
30533;SDS011;17318;52.390;9.754;2023-04-07T07:36:44;15.95;;;8.43;;
30533;SDS011;17318;52.390;9.754;2023-04-07T07:39:10;14.43;;;9.40;;
30533;SDS011;17318;52.390;9.754;2023-04-07T07:41:36;15.13;;;8.75;;
30533;SDS011;17318;52.390;9.754;2023-04-07T07:44:01;14.18;;;8.55;;
30533;SDS011;17318;52.390;9.754;2023-04-07T07:46:27;15.95;;;9.30;;
30533;SDS011;17318;52.390;9.754;2023-04-07T07:48:53;16.50;;;9.38;;
30533;SDS011;17318;52.390;9.754;2023-04-07T07:51:18;16.85;;;8.82;;
30533;SDS011;17318;52.390;9.754;2023-04-07T07:53:44;15.18;;;8.85;;
30533;SDS011;17318;52.390;9.754;2023-04-07T07:56:10;16.77;;;9.77;;
30533;SDS011;17318;52.390;9.754;2023-04-07T07:58:36;18.58;;;9.02;;
30533;SDS011;17318;52.390;9.754;2023-04-07T08:01:02;13.90;;;8.52;;
30533;SDS011;17318;52.390;9.754;2023-04-07T08:03:27;13.75;;;9.23;;
30533;SDS011;17318;52.390;9.754;2023-04-07T08:05:53;14.80;;;8.63;;
30533;SDS011;17318;52.390;9.754;2023-04-07T08:08:19;14.88;;;8.65;;
30533;SDS011;17318;52.390;9.754;2023-04-07T08:10:45;18.40;;;8.80;;
30533;SDS011;17318;52.390;9.754;2023-04-07T08:13:10;13.30;;;7.82;;
30533;SDS011;17318;52.390;9.754;2023-04-07T08:15:36;16.17;;;8.15;;
30533;SDS011;17318;52.390;9.754;2023-04-07T08:18:03;14.10;;;7.88;;
30533;SDS011;17318;52.390;9.754;2023-04-07T08:20:30;17.55;;;7.65;;
30533;SDS011;17318;52.390;9.754;2023-04-07T08:22:56;14.85;;;8.68;;
30533;SDS011;17318;52.390;9.754;2023-04-07T08:25:22;15.52;;;7.70;;
30533;SDS011;17318;52.390;9.754;2023-04-07T08:27:47;15.68;;;7.80;;
30533;SDS011;17318;52.390;9.754;2023-04-07T08:30:13;14.75;;;8.73;;
30533;SDS011;17318;52.390;9.754;2023-04-07T08:32:40;14.25;;;7.28;;
30533;SDS011;17318;52.390;9.754;2023-04-07T08:35:08;11.95;;;6.97;;
30533;SDS011;17318;52.390;9.754;2023-04-07T08:37:35;12.32;;;7.53;;
30533;SDS011;17318;52.390;9.754;2023-04-07T08:40:01;11.75;;;7.13;;
30533;SDS011;17318;52.390;9.754;2023-04-07T08:42:28;14.65;;;7.80;;
30533;SDS011;17318;52.390;9.754;2023-04-07T08:44:56;10.82;;;6.80;;
30533;SDS011;17318;52.390;9.754;2023-04-07T08:47:26;10.73;;;6.72;;
30533;SDS011;17318;52.390;9.754;2023-04-07T08:49:56;10.10;;;6.30;;
30533;SDS011;17318;52.390;9.754;2023-04-07T08:52:26;12.63;;;7.25;;
30533;SDS011;17318;52.390;9.754;2023-04-07T08:55:00;12.23;;;6.93;;
30533;SDS011;17318;52.390;9.754;2023-04-07T08:57:29;10.40;;;6.50;;
30533;SDS011;17318;52.390;9.754;2023-04-07T08:59:57;11.93;;;6.68;;
30533;SDS011;17318;52.390;9.754;2023-04-07T09:02:29;9.77;;;6.43;;
30533;SDS011;17318;52.390;9.754;2023-04-07T09:04:56;10.93;;;6.72;;
30533;SDS011;17318;52.390;9.754;2023-04-07T09:07:22;9.43;;;6.50;;
30533;SDS011;17318;52.390;9.754;2023-04-07T09:09:48;10.23;;;6.45;;
30533;SDS011;17318;52.390;9.754;2023-04-07T09:12:14;8.38;;;5.80;;
30533;SDS011;17318;52.390;9.754;2023-04-07T09:14:40;10.45;;;5.93;;
30533;SDS011;17318;52.390;9.754;2023-04-07T09:17:06;10.18;;;6.05;;
30533;SDS011;17318;52.390;9.754;2023-04-07T09:19:31;11.15;;;5.85;;
30533;SDS011;17318;52.390;9.754;2023-04-07T09:21:57;13.80;;;5.55;;
30533;SDS011;17318;52.390;9.754;2023-04-07T09:24:24;11.32;;;6.35;;
30533;SDS011;17318;52.390;9.754;2023-04-07T09:29:35;7.90;;;5.10;;
30533;SDS011;17318;52.390;9.754;2023-04-07T09:32:01;9.07;;;5.63;;
30533;SDS011;17318;52.390;9.754;2023-04-07T09:34:31;8.90;;;5.60;;
30533;SDS011;17318;52.390;9.754;2023-04-07T09:36:58;7.63;;;5.60;;
30533;SDS011;17318;52.390;9.754;2023-04-07T09:39:24;11.38;;;6.55;;
30533;SDS011;17318;52.390;9.754;2023-04-07T09:41:50;12.20;;;6.20;;
30533;SDS011;17318;52.390;9.754;2023-04-07T09:44:20;9.88;;;6.20;;
30533;SDS011;17318;52.390;9.754;2023-04-07T09:46:47;8.70;;;5.85;;
30533;SDS011;17318;52.390;9.754;2023-04-07T09:49:17;9.90;;;6.03;;
30533;SDS011;17318;52.390;9.754;2023-04-07T09:54:37;10.18;;;6.47;;
30533;SDS011;17318;52.390;9.754;2023-04-07T09:57:05;10.45;;;6.45;;
30533;SDS011;17318;52.390;9.754;2023-04-07T09:59:33;9.30;;;6.55;;
30533;SDS011;17318;52.390;9.754;2023-04-07T10:02:00;14.52;;;9.52;;
30533;SDS011;17318;52.390;9.754;2023-04-07T10:04:26;10.40;;;6.20;;
30533;SDS011;17318;52.390;9.754;2023-04-07T10:06:56;10.45;;;6.57;;
30533;SDS011;17318;52.390;9.754;2023-04-07T10:09:24;10.10;;;6.45;;
30533;SDS011;17318;52.390;9.754;2023-04-07T10:11:52;9.27;;;6.25;;
30533;SDS011;17318;52.390;9.754;2023-04-07T10:14:19;10.73;;;6.53;;
30533;SDS011;17318;52.390;9.754;2023-04-07T10:16:47;10.57;;;6.70;;
30533;SDS011;17318;52.390;9.754;2023-04-07T10:19:14;10.48;;;6.50;;
30533;SDS011;17318;52.390;9.754;2023-04-07T10:21:41;10.82;;;6.95;;
30533;SDS011;17318;52.390;9.754;2023-04-07T10:27:13;10.55;;;7.18;;
30533;SDS011;17318;52.390;9.754;2023-04-07T10:29:41;9.45;;;6.85;;
30533;SDS011;17318;52.390;9.754;2023-04-07T10:32:09;9.57;;;6.80;;
30533;SDS011;17318;52.390;9.754;2023-04-07T10:37:20;8.93;;;6.03;;
30533;SDS011;17318;52.390;9.754;2023-04-07T10:39:50;11.32;;;8.20;;
30533;SDS011;17318;52.390;9.754;2023-04-07T10:45:02;11.68;;;7.53;;
30533;SDS011;17318;52.390;9.754;2023-04-07T10:47:31;13.27;;;7.15;;
30533;SDS011;17318;52.390;9.754;2023-04-07T10:52:42;10.65;;;6.18;;
30533;SDS011;17318;52.390;9.754;2023-04-07T11:01:32;9.60;;;6.78;;
30533;SDS011;17318;52.390;9.754;2023-04-07T11:03:43;12.00;;;7.28;;
30533;SDS011;17318;52.390;9.754;2023-04-07T11:06:18;12.45;;;7.35;;
30533;SDS011;17318;52.390;9.754;2023-04-07T11:08:44;12.05;;;7.38;;
30533;SDS011;17318;52.390;9.754;2023-04-07T11:11:12;8.57;;;6.50;;
30533;SDS011;17318;52.390;9.754;2023-04-07T11:16:05;10.00;;;7.47;;
30533;SDS011;17318;52.390;9.754;2023-04-07T11:18:31;13.02;;;7.32;;
30533;SDS011;17318;52.390;9.754;2023-04-07T11:20:57;10.18;;;6.68;;
30533;SDS011;17318;52.390;9.754;2023-04-07T11:23:23;10.93;;;6.50;;
30533;SDS011;17318;52.390;9.754;2023-04-07T11:25:51;13.82;;;7.53;;
30533;SDS011;17318;52.390;9.754;2023-04-07T11:28:23;14.73;;;7.60;;
30533;SDS011;17318;52.390;9.754;2023-04-07T11:30:49;11.25;;;7.07;;
30533;SDS011;17318;52.390;9.754;2023-04-07T11:35:47;10.90;;;7.28;;
30533;SDS011;17318;52.390;9.754;2023-04-07T11:38:20;12.70;;;7.10;;
30533;SDS011;17318;52.390;9.754;2023-04-07T11:40:47;10.35;;;7.25;;
30533;SDS011;17318;52.390;9.754;2023-04-07T11:43:20;23.75;;;14.05;;
30533;SDS011;17318;52.390;9.754;2023-04-07T11:48:35;12.07;;;6.57;;
30533;SDS011;17318;52.390;9.754;2023-04-07T11:51:03;13.52;;;7.40;;
30533;SDS011;17318;52.390;9.754;2023-04-07T11:53:30;15.35;;;7.28;;
30533;SDS011;17318;52.390;9.754;2023-04-07T11:56:01;13.68;;;8.13;;
30533;SDS011;17318;52.390;9.754;2023-04-07T11:58:33;12.57;;;7.43;;
30533;SDS011;17318;52.390;9.754;2023-04-07T12:01:00;12.35;;;7.10;;
30533;SDS011;17318;52.390;9.754;2023-04-07T12:03:31;12.88;;;7.25;;
30533;SDS011;17318;52.390;9.754;2023-04-07T12:06:00;12.38;;;7.47;;
30533;SDS011;17318;52.390;9.754;2023-04-07T12:08:39;14.75;;;7.60;;
30533;SDS011;17318;52.390;9.754;2023-04-07T12:11:06;11.23;;;6.60;;
30533;SDS011;17318;52.390;9.754;2023-04-07T12:13:33;12.10;;;7.32;;
30533;SDS011;17318;52.390;9.754;2023-04-07T12:15:59;13.93;;;7.03;;
30533;SDS011;17318;52.390;9.754;2023-04-07T12:18:25;14.70;;;8.25;;
30533;SDS011;17318;52.390;9.754;2023-04-07T12:20:52;13.23;;;6.97;;
30533;SDS011;17318;52.390;9.754;2023-04-07T12:23:18;12.18;;;6.70;;
30533;SDS011;17318;52.390;9.754;2023-04-07T12:25:43;15.00;;;7.03;;
30533;SDS011;17318;52.390;9.754;2023-04-07T12:28:09;12.85;;;6.85;;
30533;SDS011;17318;52.390;9.754;2023-04-07T12:30:35;9.55;;;6.30;;
30533;SDS011;17318;52.390;9.754;2023-04-07T12:33:01;12.48;;;6.50;;
30533;SDS011;17318;52.390;9.754;2023-04-07T12:35:28;16.50;;;6.47;;
30533;SDS011;17318;52.390;9.754;2023-04-07T12:37:54;13.27;;;7.00;;
30533;SDS011;17318;52.390;9.754;2023-04-07T12:40:21;13.07;;;6.78;;
30533;SDS011;17318;52.390;9.754;2023-04-07T12:42:47;10.25;;;6.45;;
30533;SDS011;17318;52.390;9.754;2023-04-07T12:45:12;11.00;;;5.68;;
30533;SDS011;17318;52.390;9.754;2023-04-07T12:47:38;12.90;;;6.50;;
30533;SDS011;17318;52.390;9.754;2023-04-07T12:50:04;13.95;;;5.57;;
30533;SDS011;17318;52.390;9.754;2023-04-07T12:52:30;11.38;;;6.63;;
30533;SDS011;17318;52.390;9.754;2023-04-07T12:55:00;10.75;;;6.30;;
30533;SDS011;17318;52.390;9.754;2023-04-07T12:57:25;13.88;;;6.30;;
30533;SDS011;17318;52.390;9.754;2023-04-07T12:59:51;12.32;;;6.25;;
30533;SDS011;17318;52.390;9.754;2023-04-07T13:02:18;11.20;;;6.10;;
30533;SDS011;17318;52.390;9.754;2023-04-07T13:04:45;10.35;;;5.45;;
30533;SDS011;17318;52.390;9.754;2023-04-07T13:07:13;10.18;;;5.75;;
30533;SDS011;17318;52.390;9.754;2023-04-07T13:09:40;11.32;;;5.85;;
30533;SDS011;17318;52.390;9.754;2023-04-07T13:12:09;13.43;;;6.45;;
30533;SDS011;17318;52.390;9.754;2023-04-07T13:14:36;11.45;;;6.07;;
30533;SDS011;17318;52.390;9.754;2023-04-07T13:17:03;11.20;;;6.47;;
30533;SDS011;17318;52.390;9.754;2023-04-07T13:19:28;10.77;;;6.03;;
30533;SDS011;17318;52.390;9.754;2023-04-07T13:21:55;9.73;;;5.63;;
30533;SDS011;17318;52.390;9.754;2023-04-07T13:24:21;11.65;;;6.22;;
30533;SDS011;17318;52.390;9.754;2023-04-07T13:26:46;11.48;;;5.68;;
30533;SDS011;17318;52.390;9.754;2023-04-07T13:29:13;11.25;;;6.03;;
30533;SDS011;17318;52.390;9.754;2023-04-07T13:31:38;9.48;;;4.82;;
30533;SDS011;17318;52.390;9.754;2023-04-07T13:34:04;10.52;;;4.97;;
30533;SDS011;17318;52.390;9.754;2023-04-07T13:36:30;8.63;;;4.75;;
30533;SDS011;17318;52.390;9.754;2023-04-07T13:38:55;9.00;;;5.13;;
30533;SDS011;17318;52.390;9.754;2023-04-07T13:41:21;14.15;;;5.28;;
30533;SDS011;17318;52.390;9.754;2023-04-07T13:43:47;10.27;;;5.35;;
30533;SDS011;17318;52.390;9.754;2023-04-07T13:46:13;8.40;;;4.63;;
30533;SDS011;17318;52.390;9.754;2023-04-07T13:48:41;7.95;;;4.57;;
30533;SDS011;17318;52.390;9.754;2023-04-07T13:51:11;11.00;;;4.70;;
30533;SDS011;17318;52.390;9.754;2023-04-07T13:53:37;9.93;;;4.90;;
30533;SDS011;17318;52.390;9.754;2023-04-07T13:56:03;10.75;;;4.97;;
30533;SDS011;17318;52.390;9.754;2023-04-07T13:58:32;9.00;;;4.60;;
30533;SDS011;17318;52.390;9.754;2023-04-07T14:01:01;7.95;;;4.95;;
30533;SDS011;17318;52.390;9.754;2023-04-07T14:03:27;7.38;;;4.35;;
30533;SDS011;17318;52.390;9.754;2023-04-07T14:05:53;9.48;;;4.60;;
30533;SDS011;17318;52.390;9.754;2023-04-07T14:08:19;8.15;;;4.50;;
30533;SDS011;17318;52.390;9.754;2023-04-07T14:13:13;11.80;;;4.47;;
30533;SDS011;17318;52.390;9.754;2023-04-07T14:15:39;6.82;;;4.07;;
30533;SDS011;17318;52.390;9.754;2023-04-07T14:18:04;10.68;;;4.47;;
30533;SDS011;17318;52.390;9.754;2023-04-07T14:20:31;8.43;;;4.35;;
30533;SDS011;17318;52.390;9.754;2023-04-07T14:22:57;8.40;;;4.85;;
30533;SDS011;17318;52.390;9.754;2023-04-07T14:25:22;10.27;;;4.65;;
30533;SDS011;17318;52.390;9.754;2023-04-07T14:27:48;9.43;;;4.40;;
30533;SDS011;17318;52.390;9.754;2023-04-07T14:30:15;8.40;;;4.32;;
30533;SDS011;17318;52.390;9.754;2023-04-07T14:32:40;10.93;;;4.95;;
30533;SDS011;17318;52.390;9.754;2023-04-07T14:35:06;8.90;;;4.75;;
30533;SDS011;17318;52.390;9.754;2023-04-07T14:37:32;7.75;;;4.57;;
30533;SDS011;17318;52.390;9.754;2023-04-07T14:39:59;9.50;;;4.37;;
30533;SDS011;17318;52.390;9.754;2023-04-07T14:42:26;8.88;;;3.88;;
30533;SDS011;17318;52.390;9.754;2023-04-07T14:44:53;8.80;;;4.60;;
30533;SDS011;17318;52.390;9.754;2023-04-07T14:47:19;7.88;;;3.97;;
30533;SDS011;17318;52.390;9.754;2023-04-07T14:49:45;6.43;;;4.15;;
30533;SDS011;17318;52.390;9.754;2023-04-07T14:52:11;8.63;;;4.22;;
30533;SDS011;17318;52.390;9.754;2023-04-07T14:54:39;6.45;;;3.88;;
30533;SDS011;17318;52.390;9.754;2023-04-07T14:57:06;13.57;;;4.45;;
30533;SDS011;17318;52.390;9.754;2023-04-07T14:59:32;10.75;;;4.38;;
30533;SDS011;17318;52.390;9.754;2023-04-07T15:01:58;9.13;;;4.55;;
30533;SDS011;17318;52.390;9.754;2023-04-07T15:04:23;17.35;;;6.32;;
30533;SDS011;17318;52.390;9.754;2023-04-07T15:06:49;10.27;;;4.32;;
30533;SDS011;17318;52.390;9.754;2023-04-07T15:09:15;11.10;;;4.63;;
30533;SDS011;17318;52.390;9.754;2023-04-07T15:11:40;6.38;;;3.70;;
30533;SDS011;17318;52.390;9.754;2023-04-07T15:14:06;9.45;;;3.83;;
30533;SDS011;17318;52.390;9.754;2023-04-07T15:16:32;9.10;;;3.90;;